Aérodrome :
LOGIN :

S'inscrire | Disclaimer

   EN    FR    IT 

 










Légende :    VFR   VFR Marginal   IFR   IFR Intensif   IFR Très Intensif
Visi : 
Plafond : 
>= 8 km
>= 3000ft
5 à 8 km
1000 à 3000 ft
1500m à 5 km
500 à 1000 ft
800 à 1500m
200 à 500 ft
< 800m
< 200 ft
Symboles :   Orages  Brouillard  Fortes neiges  Fortes précipitations  Vent > 20 kt
SIGMETs :   Divers  Orages  Givrage  Turbulence  Onde Orograph.  Cendres Volcan.







- Altitude de l'aérodrome : 16 ft
- Code IATA : EAS


LESO - San Sebastian Fuenterrabia

DERNIER METAR :
  • 251430Z 03004KT 330V060 9999 FEW035 22/16 Q1013

METARs EXPIRÉS :
  • 251400Z VRB02KT 9999 FEW030 21/15 Q1013
  • 251330Z 04003KT 010V120 9999 SCT030 21/17 Q1014
  • 251300Z 00000KT 9999 FEW021 21/16 Q1014
  • 251230Z VRB01KT 9999 FEW014 20/16 Q1014
  • 251200Z VRB01KT 9999 FEW014 19/16 Q1014

TAF TAF LESO
Valide du 25 à 12h jusqu'au 26 à 12h UTC


251100Z 2512/2612 VRB05KT 9999 SCT040 TX22/2514Z TN17/2605Z
PROB40
TEMPO 2512/2518 35010KT
TEMPO 2512/2612 RA SHRA BKN010 SCT030TCU
PROB40
TEMPO 2512/2612 3000 TSRA BKN030CB
Pas de NOTAMs connus pour ce terrain.
2 SIGMETs publiés pour la FIR Madrid (LECM) :
 
Orages noyés dans la masse
LECM SIGMET 5 VALID 251325/251500 LEVA
LECM MADRID FIR/UIR EMBD TS OBS AT 1325Z S OF LINE N4241 W00827 - N4239 W007 TOP FL390 STNR NC=
Orages noyés dans la masse
LECM SIGMET 4 VALID 251138/251500 LEVA
LECM MADRID FIR/UIR EMBD TS OBS AT 1138Z WI N4115 W00640 - N3911 W00711 - N39 W00438 - N4135 W00426 - N4115 W00640 TOP FL300 MOV N 15KT INTSF=



MET'MAP, la Météo Aéronautique d'un coup d'oeil ! - Copyright ORBIFLY Décembre 2007 - Disclaimer

ORBIFLY MET'MAP TEAM :

Programmation & Développement : Alexandra Zaïnal
Conception & Développement : Baudouin d'Aumeries
Co-Programmation & Développement : Marc-Olivier Méhu
Soutien technique & logistique : Manuel Goepfert

Contact : metmap@orbifly.com




SOURCES & CREDITS :

   NOAA